sensor_id;sensor_type;location;lat;lon;timestamp;pressure;altitude;pressure_sealevel;temperature;humidity
67697;BME280;54486;51.442;6.778;2023-02-07T00:01:29;103814.03;;;1.28;100.00
67697;BME280;54486;51.442;6.778;2023-02-07T00:03:57;103813.63;;;1.33;100.00
67697;BME280;54486;51.442;6.778;2023-02-07T00:06:26;103810.69;;;1.29;100.00
67697;BME280;54486;51.442;6.778;2023-02-07T00:08:54;103821.63;;;1.26;100.00
67697;BME280;54486;51.442;6.778;2023-02-07T00:11:21;103819.34;;;1.19;100.00
67697;BME280;54486;51.442;6.778;2023-02-07T00:13:50;103815.09;;;1.20;100.00
67697;BME280;54486;51.442;6.778;2023-02-07T00:16:18;103816.25;;;1.23;100.00
67697;BME280;54486;51.442;6.778;2023-02-07T00:18:46;103813.16;;;1.27;100.00
67697;BME280;54486;51.442;6.778;2023-02-07T00:21:15;103817.81;;;1.21;100.00
67697;BME280;54486;51.442;6.778;2023-02-07T00:23:42;103834.53;;;1.16;100.00
67697;BME280;54486;51.442;6.778;2023-02-07T00:26:10;103835.81;;;1.21;100.00
67697;BME280;54486;51.442;6.778;2023-02-07T00:28:37;103833.72;;;1.27;100.00
67697;BME280;54486;51.442;6.778;2023-02-07T00:31:07;103827.78;;;1.28;100.00
67697;BME280;54486;51.442;6.778;2023-02-07T00:33:34;103835.03;;;1.22;100.00
67697;BME280;54486;51.442;6.778;2023-02-07T00:36:03;103849.72;;;1.13;100.00
67697;BME280;54486;51.442;6.778;2023-02-07T00:38:30;103848.47;;;1.08;100.00
67697;BME280;54486;51.442;6.778;2023-02-07T00:40:57;103835.63;;;1.08;100.00
67697;BME280;54486;51.442;6.778;2023-02-07T00:43:24;103829.81;;;1.11;100.00
67697;BME280;54486;51.442;6.778;2023-02-07T00:45:56;103836.47;;;1.08;100.00
67697;BME280;54486;51.442;6.778;2023-02-07T00:48:25;103831.69;;;0.91;100.00
67697;BME280;54486;51.442;6.778;2023-02-07T00:50:52;103825.25;;;0.86;100.00
67697;BME280;54486;51.442;6.778;2023-02-07T00:53:19;103822.06;;;0.89;100.00
67697;BME280;54486;51.442;6.778;2023-02-07T00:55:46;103823.84;;;0.90;100.00
67697;BME280;54486;51.442;6.778;2023-02-07T00:58:13;103820.78;;;0.84;100.00
67697;BME280;54486;51.442;6.778;2023-02-07T01:00:40;103819.88;;;0.83;100.00
67697;BME280;54486;51.442;6.778;2023-02-07T01:03:07;103822.34;;;0.82;100.00
67697;BME280;54486;51.442;6.778;2023-02-07T01:05:34;103820.19;;;0.76;100.00
67697;BME280;54486;51.442;6.778;2023-02-07T01:08:01;103821.94;;;0.77;100.00
67697;BME280;54486;51.442;6.778;2023-02-07T01:10:29;103834.19;;;0.70;100.00
67697;BME280;54486;51.442;6.778;2023-02-07T01:12:57;103815.16;;;0.68;100.00
67697;BME280;54486;51.442;6.778;2023-02-07T01:15:23;103823.91;;;0.70;100.00
67697;BME280;54486;51.442;6.778;2023-02-07T01:17:50;103823.44;;;0.64;100.00
67697;BME280;54486;51.442;6.778;2023-02-07T01:20:17;103824.94;;;0.62;100.00
67697;BME280;54486;51.442;6.778;2023-02-07T01:22:44;103829.84;;;0.59;100.00
67697;BME280;54486;51.442;6.778;2023-02-07T01:25:11;103831.66;;;0.60;100.00
67697;BME280;54486;51.442;6.778;2023-02-07T01:27:38;103826.50;;;0.60;100.00
67697;BME280;54486;51.442;6.778;2023-02-07T01:30:05;103830.09;;;0.51;100.00
67697;BME280;54486;51.442;6.778;2023-02-07T01:32:32;103831.28;;;0.45;100.00
67697;BME280;54486;51.442;6.778;2023-02-07T01:34:59;103828.34;;;0.40;100.00
67697;BME280;54486;51.442;6.778;2023-02-07T01:37:26;103826.03;;;0.43;100.00
67697;BME280;54486;51.442;6.778;2023-02-07T01:39:53;103824.88;;;0.40;100.00
67697;BME280;54486;51.442;6.778;2023-02-07T01:42:22;103821.41;;;0.39;100.00
67697;BME280;54486;51.442;6.778;2023-02-07T01:47:17;103828.59;;;0.43;100.00
67697;BME280;54486;51.442;6.778;2023-02-07T01:49:45;103820.97;;;0.55;100.00
67697;BME280;54486;51.442;6.778;2023-02-07T01:52:15;103826.25;;;0.57;100.00
67697;BME280;54486;51.442;6.778;2023-02-07T01:54:44;103829.59;;;0.56;100.00
67697;BME280;54486;51.442;6.778;2023-02-07T01:57:13;103832.91;;;0.54;100.00
67697;BME280;54486;51.442;6.778;2023-02-07T01:59:42;103827.16;;;0.57;100.00
67697;BME280;54486;51.442;6.778;2023-02-07T02:02:10;103834.72;;;0.56;100.00
67697;BME280;54486;51.442;6.778;2023-02-07T02:04:39;103833.56;;;0.52;100.00
67697;BME280;54486;51.442;6.778;2023-02-07T02:07:07;103824.84;;;0.50;100.00
67697;BME280;54486;51.442;6.778;2023-02-07T02:09:35;103832.19;;;0.45;100.00
67697;BME280;54486;51.442;6.778;2023-02-07T02:17:08;103840.44;;;0.41;100.00
67697;BME280;54486;51.442;6.778;2023-02-07T02:35:27;103833.09;;;0.26;100.00
67697;BME280;54486;51.442;6.778;2023-02-07T02:38:01;103836.06;;;0.20;100.00
67697;BME280;54486;51.442;6.778;2023-02-07T02:40:39;103826.53;;;0.19;100.00
67697;BME280;54486;51.442;6.778;2023-02-07T02:43:16;103826.03;;;0.13;100.00
67697;BME280;54486;51.442;6.778;2023-02-07T02:45:46;103828.50;;;0.12;100.00
67697;BME280;54486;51.442;6.778;2023-02-07T02:48:16;103830.00;;;0.10;100.00
67697;BME280;54486;51.442;6.778;2023-02-07T02:50:44;103833.22;;;0.07;100.00
67697;BME280;54486;51.442;6.778;2023-02-07T02:53:13;103828.25;;;0.09;100.00
67697;BME280;54486;51.442;6.778;2023-02-07T03:04:03;103812.59;;;0.06;100.00
67697;BME280;54486;51.442;6.778;2023-02-07T03:11:37;103812.06;;;-0.01;100.00
67697;BME280;54486;51.442;6.778;2023-02-07T03:14:18;103816.94;;;-0.04;100.00
67697;BME280;54486;51.442;6.778;2023-02-07T03:16:49;103824.50;;;-0.05;100.00
67697;BME280;54486;51.442;6.778;2023-02-07T03:19:21;103814.50;;;-0.02;100.00
67697;BME280;54486;51.442;6.778;2023-02-07T03:21:57;103805.78;;;-0.04;100.00
67697;BME280;54486;51.442;6.778;2023-02-07T03:24:26;103812.19;;;-0.09;100.00
67697;BME280;54486;51.442;6.778;2023-02-07T03:26:56;103807.03;;;-0.09;100.00
67697;BME280;54486;51.442;6.778;2023-02-07T03:29:23;103803.72;;;-0.08;100.00
67697;BME280;54486;51.442;6.778;2023-02-07T03:31:51;103807.19;;;-0.08;100.00
67697;BME280;54486;51.442;6.778;2023-02-07T03:34:24;103813.22;;;-0.07;100.00
67697;BME280;54486;51.442;6.778;2023-02-07T03:39:21;103816.03;;;-0.14;100.00
67697;BME280;54486;51.442;6.778;2023-02-07T03:41:52;103818.59;;;-0.14;100.00
67697;BME280;54486;51.442;6.778;2023-02-07T03:44:22;103817.19;;;-0.21;100.00
67697;BME280;54486;51.442;6.778;2023-02-07T03:46:50;103817.84;;;-0.23;100.00
67697;BME280;54486;51.442;6.778;2023-02-07T03:49:19;103820.25;;;-0.25;100.00
67697;BME280;54486;51.442;6.778;2023-02-07T03:51:50;103827.59;;;-0.29;100.00
67697;BME280;54486;51.442;6.778;2023-02-07T03:54:18;103820.25;;;-0.25;100.00
67697;BME280;54486;51.442;6.778;2023-02-07T03:56:46;103817.31;;;-0.29;100.00
67697;BME280;54486;51.442;6.778;2023-02-07T03:59:13;103820.63;;;-0.30;100.00
67697;BME280;54486;51.442;6.778;2023-02-07T04:01:39;103829.34;;;-0.28;100.00
67697;BME280;54486;51.442;6.778;2023-02-07T04:04:08;103830.75;;;-0.32;100.00
67697;BME280;54486;51.442;6.778;2023-02-07T04:06:36;103829.22;;;-0.40;100.00
67697;BME280;54486;51.442;6.778;2023-02-07T04:09:03;103823.69;;;-0.34;100.00
67697;BME280;54486;51.442;6.778;2023-02-07T04:11:30;103820.13;;;-0.36;100.00
67697;BME280;54486;51.442;6.778;2023-02-07T04:13:57;103821.28;;;-0.33;100.00
67697;BME280;54486;51.442;6.778;2023-02-07T04:16:24;103804.22;;;-0.42;100.00
67697;BME280;54486;51.442;6.778;2023-02-07T04:18:51;103810.84;;;-0.44;100.00
67697;BME280;54486;51.442;6.778;2023-02-07T04:21:18;103807.53;;;-0.43;100.00
67697;BME280;54486;51.442;6.778;2023-02-07T04:23:45;103810.84;;;-0.44;100.00
67697;BME280;54486;51.442;6.778;2023-02-07T04:26:13;103803.03;;;-0.46;100.00
67697;BME280;54486;51.442;6.778;2023-02-07T04:28:41;103801.63;;;-0.52;100.00
67697;BME280;54486;51.442;6.778;2023-02-07T04:31:08;103800.34;;;-0.58;100.00
67697;BME280;54486;51.442;6.778;2023-02-07T04:33:34;103802.91;;;-0.58;100.00
67697;BME280;54486;51.442;6.778;2023-02-07T04:36:02;103802.91;;;-0.58;100.00
67697;BME280;54486;51.442;6.778;2023-02-07T04:38:29;103799.56;;;-0.57;100.00
67697;BME280;54486;51.442;6.778;2023-02-07T04:41:00;103794.31;;;-0.58;100.00
67697;BME280;54486;51.442;6.778;2023-02-07T04:43:29;103794.16;;;-0.60;100.00
67697;BME280;54486;51.442;6.778;2023-02-07T04:45:57;103794.41;;;-0.57;100.00
67697;BME280;54486;51.442;6.778;2023-02-07T04:48:24;103786.47;;;-0.60;100.00
67697;BME280;54486;51.442;6.778;2023-02-07T04:50:51;103784.53;;;-0.62;100.00
67697;BME280;54486;51.442;6.778;2023-02-07T04:53:17;103782.38;;;-0.68;100.00
67697;BME280;54486;51.442;6.778;2023-02-07T04:55:48;103791.22;;;-0.64;100.00
67697;BME280;54486;51.442;6.778;2023-02-07T04:58:15;103797.22;;;-0.64;100.00
67697;BME280;54486;51.442;6.778;2023-02-07T05:00:42;103794.53;;;-0.65;100.00
67697;BME280;54486;51.442;6.778;2023-02-07T05:03:09;103796.34;;;-0.64;100.00
67697;BME280;54486;51.442;6.778;2023-02-07T05:05:39;103788.78;;;-0.63;100.00
67697;BME280;54486;51.442;6.778;2023-02-07T05:08:07;103787.53;;;-0.58;100.00
67697;BME280;54486;51.442;6.778;2023-02-07T05:10:34;103790.84;;;-0.59;100.00
67697;BME280;54486;51.442;6.778;2023-02-07T05:13:01;103797.78;;;-0.58;100.00
67697;BME280;54486;51.442;6.778;2023-02-07T05:15:28;103799.94;;;-0.62;100.00
67697;BME280;54486;51.442;6.778;2023-02-07T05:17:55;103794.91;;;-0.61;100.00
67697;BME280;54486;51.442;6.778;2023-02-07T05:20:23;103797.47;;;-0.61;100.00
67697;BME280;54486;51.442;6.778;2023-02-07T05:22:50;103801.47;;;-0.64;100.00
67697;BME280;54486;51.442;6.778;2023-02-07T05:25:18;103796.97;;;-0.67;100.00
67697;BME280;54486;51.442;6.778;2023-02-07T05:27:45;103801.06;;;-0.69;100.00
67697;BME280;54486;51.442;6.778;2023-02-07T05:30:13;103806.19;;;-0.69;100.00
67697;BME280;54486;51.442;6.778;2023-02-07T05:32:40;103810.03;;;-0.74;100.00
67697;BME280;54486;51.442;6.778;2023-02-07T05:35:25;103816.03;;;-0.73;100.00
67697;BME280;54486;51.442;6.778;2023-02-07T05:37:52;103818.22;;;-0.78;100.00
67697;BME280;54486;51.442;6.778;2023-02-07T05:40:19;103826.66;;;-0.79;100.00
67697;BME280;54486;51.442;6.778;2023-02-07T05:42:45;103830.28;;;-0.77;100.00
67697;BME280;54486;51.442;6.778;2023-02-07T05:45:12;103828.47;;;-0.78;100.00
67697;BME280;54486;51.442;6.778;2023-02-07T05:47:39;103831.78;;;-0.79;100.00
67697;BME280;54486;51.442;6.778;2023-02-07T05:50:07;103831.00;;;-0.88;100.00
67697;BME280;54486;51.442;6.778;2023-02-07T05:52:36;103827.94;;;-0.84;100.00
67697;BME280;54486;51.442;6.778;2023-02-07T05:55:04;103834.31;;;-0.89;100.00
67697;BME280;54486;51.442;6.778;2023-02-07T05:57:32;103828.94;;;-0.92;100.00
67697;BME280;54486;51.442;6.778;2023-02-07T06:00:00;103837.88;;;-0.97;100.00
67697;BME280;54486;51.442;6.778;2023-02-07T06:02:29;103845.09;;;-0.93;100.00
67697;BME280;54486;51.442;6.778;2023-02-07T06:05:01;103843.75;;;-0.98;100.00
67697;BME280;54486;51.442;6.778;2023-02-07T06:07:29;103839.91;;;-1.03;100.00
67697;BME280;54486;51.442;6.778;2023-02-07T06:09:59;103841.22;;;-0.98;100.00
67697;BME280;54486;51.442;6.778;2023-02-07T06:12:27;103845.31;;;-1.00;100.00
67697;BME280;54486;51.442;6.778;2023-02-07T06:14:55;103839.13;;;-1.02;100.00
67697;BME280;54486;51.442;6.778;2023-02-07T06:17:24;103833.78;;;-0.95;100.00
67697;BME280;54486;51.442;6.778;2023-02-07T06:19:53;103842.53;;;-0.93;100.00
67697;BME280;54486;51.442;6.778;2023-02-07T06:22:22;103845.84;;;-0.94;100.00
67697;BME280;54486;51.442;6.778;2023-02-07T06:24:50;103844.03;;;-0.95;100.00
67697;BME280;54486;51.442;6.778;2023-02-07T06:27:18;103842.53;;;-0.93;100.00
67697;BME280;54486;51.442;6.778;2023-02-07T06:29:46;103841.00;;;-0.91;100.00
67697;BME280;54486;51.442;6.778;2023-02-07T06:32:14;103845.44;;;-0.98;100.00
67697;BME280;54486;51.442;6.778;2023-02-07T06:34:41;103847.66;;;-0.93;100.00
67697;BME280;54486;51.442;6.778;2023-02-07T06:37:08;103846.22;;;-0.99;100.00
67697;BME280;54486;51.442;6.778;2023-02-07T06:39:35;103846.34;;;-0.98;100.00
67697;BME280;54486;51.442;6.778;2023-02-07T06:42:02;103850.44;;;-1.00;100.00
67697;BME280;54486;51.442;6.778;2023-02-07T06:44:30;103852.94;;;-1.10;100.00
67697;BME280;54486;51.442;6.778;2023-02-07T06:46:57;103855.22;;;-1.13;100.00
67697;BME280;54486;51.442;6.778;2023-02-07T06:49:24;103854.81;;;-1.18;100.00
67697;BME280;54486;51.442;6.778;2023-02-07T06:51:50;103860.84;;;-1.17;100.00
67697;BME280;54486;51.442;6.778;2023-02-07T06:54:17;103858.06;;;-1.10;100.00
67697;BME280;54486;51.442;6.778;2023-02-07T06:56:44;103859.88;;;-1.09;100.00
67697;BME280;54486;51.442;6.778;2023-02-07T06:59:11;103863.19;;;-1.10;100.00
67697;BME280;54486;51.442;6.778;2023-02-07T07:01:38;103864.22;;;-1.08;100.00
67697;BME280;54486;51.442;6.778;2023-02-07T07:04:05;103866.78;;;-1.08;100.00
67697;BME280;54486;51.442;6.778;2023-02-07T07:06:32;103870.13;;;-1.09;100.00
67697;BME280;54486;51.442;6.778;2023-02-07T07:08:59;103865.75;;;-1.10;100.00
67697;BME280;54486;51.442;6.778;2023-02-07T07:11:26;103865.91;;;-1.09;100.00
67697;BME280;54486;51.442;6.778;2023-02-07T07:13:53;103874.63;;;-1.07;100.00
67697;BME280;54486;51.442;6.778;2023-02-07T07:16:19;103873.97;;;-1.04;100.00
67697;BME280;54486;51.442;6.778;2023-02-07T07:18:47;103877.03;;;-1.08;100.00
67697;BME280;54486;51.442;6.778;2023-02-07T07:21:13;103873.22;;;-1.03;100.00
67697;BME280;54486;51.442;6.778;2023-02-07T07:23:40;103883.97;;;-1.07;100.00
67697;BME280;54486;51.442;6.778;2023-02-07T07:26:07;103888.44;;;-1.04;100.00
67697;BME280;54486;51.442;6.778;2023-02-07T07:28:34;103887.28;;;-1.08;100.00
67697;BME280;54486;51.442;6.778;2023-02-07T07:31:01;103889.09;;;-1.07;100.00
67697;BME280;54486;51.442;6.778;2023-02-07T07:33:29;103891.16;;;-1.03;100.00
67697;BME280;54486;51.442;6.778;2023-02-07T07:35:57;103895.81;;;-0.99;100.00
67697;BME280;54486;51.442;6.778;2023-02-07T07:38:24;103898.38;;;-0.99;100.00
67697;BME280;54486;51.442;6.778;2023-02-07T07:40:51;103896.09;;;-0.96;100.00
67697;BME280;54486;51.442;6.778;2023-02-07T07:43:18;103899.19;;;-0.90;100.00
67697;BME280;54486;51.442;6.778;2023-02-07T07:45:45;103895.84;;;-0.89;100.00
67697;BME280;54486;51.442;6.778;2023-02-07T07:48:12;103905.06;;;-0.91;100.00
67697;BME280;54486;51.442;6.778;2023-02-07T07:50:39;103902.50;;;-0.91;100.00
67697;BME280;54486;51.442;6.778;2023-02-07T07:53:07;103897.38;;;-0.91;100.00
67697;BME280;54486;51.442;6.778;2023-02-07T07:55:34;103897.38;;;-0.91;100.00
67697;BME280;54486;51.442;6.778;2023-02-07T07:58:02;103897.66;;;-0.88;100.00
67697;BME280;54486;51.442;6.778;2023-02-07T08:00:28;103902.41;;;-0.82;100.00
67697;BME280;54486;51.442;6.778;2023-02-07T08:02:55;103907.06;;;-0.78;100.00
67697;BME280;54486;51.442;6.778;2023-02-07T08:05:22;103908.72;;;-0.79;100.00
67697;BME280;54486;51.442;6.778;2023-02-07T08:07:49;103910.16;;;-0.72;100.00
67697;BME280;54486;51.442;6.778;2023-02-07T08:10:16;103907.47;;;-0.74;100.00
67697;BME280;54486;51.442;6.778;2023-02-07T08:12:45;103913.41;;;-0.65;100.00
67697;BME280;54486;51.442;6.778;2023-02-07T08:15:12;103922.13;;;-0.63;100.00
67697;BME280;54486;51.442;6.778;2023-02-07T08:17:40;103912.41;;;-0.57;100.00
67697;BME280;54486;51.442;6.778;2023-02-07T08:20:07;103918.44;;;-0.56;100.00
67697;BME280;54486;51.442;6.778;2023-02-07T08:22:34;103914.75;;;-0.49;100.00
67697;BME280;54486;51.442;6.778;2023-02-07T08:25:01;103913.19;;;-0.47;100.00
67697;BME280;54486;51.442;6.778;2023-02-07T08:27:28;103907.31;;;-0.46;100.00
67697;BME280;54486;51.442;6.778;2023-02-07T08:29:55;103908.59;;;-0.41;100.00
67697;BME280;54486;51.442;6.778;2023-02-07T08:32:22;103905.81;;;-0.34;100.00
67697;BME280;54486;51.442;6.778;2023-02-07T08:34:49;103906.31;;;-0.28;100.00
67697;BME280;54486;51.442;6.778;2023-02-07T08:37:16;103903.00;;;-0.27;100.00
67697;BME280;54486;51.442;6.778;2023-02-07T08:39:43;103905.06;;;-0.23;100.00
67697;BME280;54486;51.442;6.778;2023-02-07T08:42:11;103907.16;;;-0.19;100.00
67697;BME280;54486;51.442;6.778;2023-02-07T08:44:38;103906.13;;;-0.11;100.00
67697;BME280;54486;51.442;6.778;2023-02-07T08:47:04;103904.84;;;-0.06;100.00
67697;BME280;54486;51.442;6.778;2023-02-07T08:49:31;103909.22;;;-0.05;100.00
67697;BME280;54486;51.442;6.778;2023-02-07T08:51:59;103913.84;;;-0.01;100.00
67697;BME280;54486;51.442;6.778;2023-02-07T08:54:26;103922.81;;;0.04;100.00
67697;BME280;54486;51.442;6.778;2023-02-07T08:56:53;103914.38;;;0.05;100.00
67697;BME280;54486;51.442;6.778;2023-02-07T08:59:20;103916.69;;;0.12;100.00
67697;BME280;54486;51.442;6.778;2023-02-07T09:01:47;103915.91;;;0.13;100.00
67697;BME280;54486;51.442;6.778;2023-02-07T09:04:14;103920.78;;;0.20;100.00
67697;BME280;54486;51.442;6.778;2023-02-07T09:06:42;103919.53;;;0.25;100.00
67697;BME280;54486;51.442;6.778;2023-02-07T09:09:09;103916.69;;;0.32;99.85
67697;BME280;54486;51.442;6.778;2023-02-07T09:11:36;103912.06;;;0.38;100.00
67697;BME280;54486;51.442;6.778;2023-02-07T09:14:03;103919.00;;;0.39;100.00
67697;BME280;54486;51.442;6.778;2023-02-07T09:16:30;103917.09;;;0.47;100.00
67697;BME280;54486;51.442;6.778;2023-02-07T09:18:57;103913.38;;;0.53;99.75
67697;BME280;54486;51.442;6.778;2023-02-07T09:21:24;103908.72;;;0.60;99.47
67697;BME280;54486;51.442;6.778;2023-02-07T09:23:52;103907.44;;;0.65;99.71
67697;BME280;54486;51.442;6.778;2023-02-07T09:26:20;103909.75;;;0.72;99.29
67697;BME280;54486;51.442;6.778;2023-02-07T09:28:47;103910.75;;;0.84;99.03
67697;BME280;54486;51.442;6.778;2023-02-07T09:31:14;103912.28;;;0.82;98.33
67697;BME280;54486;51.442;6.778;2023-02-07T09:33:42;103909.47;;;0.89;97.52
67697;BME280;54486;51.442;6.778;2023-02-07T09:36:19;103897.88;;;0.94;97.88
67697;BME280;54486;51.442;6.778;2023-02-07T09:38:46;103899.03;;;0.97;97.17
67697;BME280;54486;51.442;6.778;2023-02-07T09:41:18;103890.38;;;1.07;97.29
67697;BME280;54486;51.442;6.778;2023-02-07T09:51:48;103902.13;;;1.25;94.96
67697;BME280;54486;51.442;6.778;2023-02-07T09:54:20;103897.22;;;1.28;95.18
67697;BME280;54486;51.442;6.778;2023-02-07T09:56:50;103888.75;;;1.29;94.03
67697;BME280;54486;51.442;6.778;2023-02-07T09:59:30;103889.25;;;1.35;94.28
67697;BME280;54486;51.442;6.778;2023-02-07T10:02:04;103898.47;;;1.43;92.99
67697;BME280;54486;51.442;6.778;2023-02-07T10:04:42;103896.06;;;1.56;90.06
67697;BME280;54486;51.442;6.778;2023-02-07T10:07:09;103896.16;;;1.68;89.91
67697;BME280;54486;51.442;6.778;2023-02-07T10:09:39;103885.19;;;1.71;90.32
67697;BME280;54486;51.442;6.778;2023-02-07T10:20:37;103886.63;;;1.89;85.13
67697;BME280;54486;51.442;6.778;2023-02-07T10:23:49;103885.09;;;1.91;85.13
67697;BME280;54486;51.442;6.778;2023-02-07T10:31:26;103886.94;;;2.15;81.92
67697;BME280;54486;51.442;6.778;2023-02-07T10:33:56;103889.28;;;2.12;82.29
67697;BME280;54486;51.442;6.778;2023-02-07T10:36:25;103889.00;;;2.19;81.41
67697;BME280;54486;51.442;6.778;2023-02-07T10:39:02;103883.06;;;2.20;80.96
67697;BME280;54486;51.442;6.778;2023-02-07T10:41:36;103884.06;;;2.22;82.11
67697;BME280;54486;51.442;6.778;2023-02-07T10:44:16;103877.47;;;2.26;81.33
67697;BME280;54486;51.442;6.778;2023-02-07T10:46:44;103884.75;;;2.31;81.08
67697;BME280;54486;51.442;6.778;2023-02-07T10:49:16;103882.31;;;2.44;80.04
67697;BME280;54486;51.442;6.778;2023-02-07T10:51:52;103885.91;;;2.46;79.79
67697;BME280;54486;51.442;6.778;2023-02-07T10:54:22;103883.22;;;2.45;78.59
67697;BME280;54486;51.442;6.778;2023-02-07T11:02:23;103871.94;;;2.54;77.89
67697;BME280;54486;51.442;6.778;2023-02-07T11:04:50;103884.28;;;2.58;78.28
67697;BME280;54486;51.442;6.778;2023-02-07T11:07:17;103880.56;;;2.66;77.77
67697;BME280;54486;51.442;6.778;2023-02-07T11:09:47;103873.38;;;2.62;76.73
67697;BME280;54486;51.442;6.778;2023-02-07T11:12:14;103884.72;;;2.64;77.27
67697;BME280;54486;51.442;6.778;2023-02-07T11:14:46;103878.91;;;2.67;76.26
67697;BME280;54486;51.442;6.778;2023-02-07T11:17:24;103883.28;;;2.80;75.59
67697;BME280;54486;51.442;6.778;2023-02-07T11:19:51;103885.09;;;2.81;75.92
67697;BME280;54486;51.442;6.778;2023-02-07T11:22:20;103888.44;;;2.80;75.63
67697;BME280;54486;51.442;6.778;2023-02-07T11:24:47;103880.69;;;2.80;76.42
67697;BME280;54486;51.442;6.778;2023-02-07T11:27:15;103881.47;;;2.79;75.80
67697;BME280;54486;51.442;6.778;2023-02-07T11:29:44;103872.97;;;2.80;75.56
67697;BME280;54486;51.442;6.778;2023-02-07T11:32:12;103876.53;;;2.82;76.75
67697;BME280;54486;51.442;6.778;2023-02-07T11:37:29;103871.38;;;2.82;75.31
67697;BME280;54486;51.442;6.778;2023-02-07T11:40:14;103873.63;;;2.89;73.52
67697;BME280;54486;51.442;6.778;2023-02-07T11:42:42;103873.63;;;2.89;75.05
67697;BME280;54486;51.442;6.778;2023-02-07T11:45:14;103872.50;;;2.97;75.05
67697;BME280;54486;51.442;6.778;2023-02-07T11:47:43;103864.19;;;3.01;73.73
67697;BME280;54486;51.442;6.778;2023-02-07T11:50:15;103864.53;;;3.05;73.75
67697;BME280;54486;51.442;6.778;2023-02-07T11:52:48;103864.09;;;3.11;73.90
67697;BME280;54486;51.442;6.778;2023-02-07T11:55:17;103858.84;;;3.09;71.09
67697;BME280;54486;51.442;6.778;2023-02-07T11:57:46;103853.44;;;3.18;72.47
67697;BME280;54486;51.442;6.778;2023-02-07T12:00:23;103854.97;;;3.28;71.13
67697;BME280;54486;51.442;6.778;2023-02-07T12:02:58;103849.34;;;3.33;71.16
67697;BME280;54486;51.442;6.778;2023-02-07T12:05:26;103843.72;;;3.39;69.32
67697;BME280;54486;51.442;6.778;2023-02-07T12:08:01;103846.63;;;3.43;69.67
67697;BME280;54486;51.442;6.778;2023-02-07T12:10:35;103837.91;;;3.41;69.68
67697;BME280;54486;51.442;6.778;2023-02-07T12:13:05;103836.09;;;3.40;71.04
67697;BME280;54486;51.442;6.778;2023-02-07T12:20:50;103834.59;;;3.55;67.96
67697;BME280;54486;51.442;6.778;2023-02-07T12:23:21;103835.38;;;3.54;68.91
67697;BME280;54486;51.442;6.778;2023-02-07T12:26:18;103839.88;;;3.57;68.54
67697;BME280;54486;51.442;6.778;2023-02-07T12:31:18;103837.03;;;3.65;68.13
67697;BME280;54486;51.442;6.778;2023-02-07T12:33:49;103836.66;;;3.72;65.91
67697;BME280;54486;51.442;6.778;2023-02-07T12:36:23;103831.50;;;3.72;67.42
67697;BME280;54486;51.442;6.778;2023-02-07T12:38:53;103824.47;;;3.83;65.68
67697;BME280;54486;51.442;6.778;2023-02-07T12:41:27;103825.78;;;3.90;65.46
67697;BME280;54486;51.442;6.778;2023-02-07T12:44:09;103819.50;;;3.86;65.20
67697;BME280;54486;51.442;6.778;2023-02-07T12:47:00;103821.44;;;3.89;65.18
67697;BME280;54486;51.442;6.778;2023-02-07T12:49:39;103819.06;;;3.92;65.66
67697;BME280;54486;51.442;6.778;2023-02-07T13:00:35;103804.31;;;4.15;62.49
67697;BME280;54486;51.442;6.778;2023-02-07T13:08:15;103799.69;;;4.36;60.38
67697;BME280;54486;51.442;6.778;2023-02-07T13:21:17;103786.94;;;4.39;63.18
67697;BME280;54486;51.442;6.778;2023-02-07T13:23:48;103779.41;;;4.42;62.14
67697;BME280;54486;51.442;6.778;2023-02-07T13:26:17;103781.19;;;4.43;61.34
67697;BME280;54486;51.442;6.778;2023-02-07T13:31:18;103771.34;;;4.51;61.81
67697;BME280;54486;51.442;6.778;2023-02-07T13:33:49;103762.28;;;4.57;60.01
67697;BME280;54486;51.442;6.778;2023-02-07T13:36:35;103767.56;;;4.59;60.91
67697;BME280;54486;51.442;6.778;2023-02-07T13:41:45;103764.69;;;4.67;60.75
67697;BME280;54486;51.442;6.778;2023-02-07T13:55:07;103763.53;;;5.03;61.24
67697;BME280;54486;51.442;6.778;2023-02-07T13:57:40;103758.75;;;5.09;61.38
67697;BME280;54486;51.442;6.778;2023-02-07T14:00:32;103760.22;;;5.19;62.87
67697;BME280;54486;51.442;6.778;2023-02-07T14:03:03;103764.16;;;5.27;62.79
67697;BME280;54486;51.442;6.778;2023-02-07T14:05:41;103754.34;;;5.36;63.39
67697;BME280;54486;51.442;6.778;2023-02-07T14:13:31;103753.34;;;5.62;60.00
67697;BME280;54486;51.442;6.778;2023-02-07T14:16:09;103761.97;;;5.75;61.36
67697;BME280;54486;51.442;6.778;2023-02-07T14:24:28;103761.50;;;6.10;60.25
67697;BME280;54486;51.442;6.778;2023-02-07T14:31:47;103762.34;;;6.69;59.12
67697;BME280;54486;51.442;6.778;2023-02-07T14:34:16;103761.91;;;6.92;57.70
67697;BME280;54486;51.442;6.778;2023-02-07T14:36:46;103763.84;;;6.97;55.97
67697;BME280;54486;51.442;6.778;2023-02-07T14:41:43;103755.59;;;7.04;53.95
67697;BME280;54486;51.442;6.778;2023-02-07T14:47:23;103752.22;;;7.05;52.96
67697;BME280;54486;51.442;6.778;2023-02-07T14:49:53;103747.97;;;7.07;52.32
67697;BME280;54486;51.442;6.778;2023-02-07T14:52:23;103745.41;;;7.23;53.39
67697;BME280;54486;51.442;6.778;2023-02-07T14:54:56;103742.50;;;7.33;53.40
67697;BME280;54486;51.442;6.778;2023-02-07T15:04:57;103749.09;;;7.92;53.18
67697;BME280;54486;51.442;6.778;2023-02-07T15:07:24;103752.28;;;8.05;51.56
67697;BME280;54486;51.442;6.778;2023-02-07T15:09:52;103749.09;;;7.92;52.00
67697;BME280;54486;51.442;6.778;2023-02-07T15:12:25;103750.38;;;8.01;50.65
67697;BME280;54486;51.442;6.778;2023-02-07T15:14:55;103741.16;;;7.73;50.51
67697;BME280;54486;51.442;6.778;2023-02-07T15:17:22;103743.22;;;7.96;51.94
67697;BME280;54486;51.442;6.778;2023-02-07T15:20:16;103742.13;;;8.43;51.44
67697;BME280;54486;51.442;6.778;2023-02-07T15:22:47;103743.41;;;9.06;51.02
67697;BME280;54486;51.442;6.778;2023-02-07T15:25:15;103736.13;;;8.98;49.93